Time;durP1;ratioP1;P1;durP2;ratioP2;P2;SDS_P1;SDS_P2;PMS_P1;PMS_P2;Temp;Humidity;BMP_temperature;BMP_pressure;BME280_temperature;BME280_humidity;BME280_pressure;Samples;Min_cycle;Max_cycle;Signal;HPM_P1;HPM_P2
2023/12/23 00:01:00;;;;;;;1.63;1.20;;;;;;;8.38;100.00;99302.03;5043781;28;20229;-73
2023/12/23 00:03:25;;;;;;;2.80;1.00;;;;;;;8.39;100.00;99314.72;5061666;28;20559;-73
2023/12/23 00:05:50;;;;;;;1.90;1.20;;;;;;;8.46;100.00;99322.06;5052574;28;20185;-70
2023/12/23 00:08:16;;;;;;;5.00;1.80;;;;;;;8.51;100.00;99346.56;5072450;28;20185;-71
2023/12/23 00:10:41;;;;;;;3.30;1.47;;;;;;;8.41;100.00;99365.94;5068544;28;20223;-71
2023/12/23 00:13:06;;;;;;;3.10;1.00;;;;;;;8.33;100.00;99422.72;5083453;28;20177;-72
2023/12/23 00:15:31;;;;;;;3.03;1.23;;;;;;;7.58;100.00;99446.38;5060574;28;20201;-72
2023/12/23 00:17:57;;;;;;;0.67;0.67;;;;;;;6.99;100.00;99428.09;5065037;28;20173;-71
2023/12/23 00:20:22;;;;;;;2.07;0.77;;;;;;;6.83;100.00;99440.00;5045859;28;20236;-71
2023/12/23 00:22:47;;;;;;;1.27;0.97;;;;;;;6.63;100.00;99465.63;5051868;28;20181;-72
2023/12/23 00:25:13;;;;;;;1.87;0.97;;;;;;;6.61;100.00;99462.31;5065370;28;20267;-74
2023/12/23 00:27:38;;;;;;;2.83;0.60;;;;;;;6.55;100.00;99446.44;5071202;28;20215;-73
2023/12/23 00:30:04;;;;;;;0.60;0.60;;;;;;;6.60;100.00;99454.75;5062783;27;20627;-71
2023/12/23 00:32:29;;;;;;;0.97;0.70;;;;;;;6.53;100.00;99476.38;5050746;28;20224;-71
2023/12/23 00:34:54;;;;;;;0.87;0.67;;;;;;;6.56;100.00;99484.72;5073132;28;20333;-73
2023/12/23 00:37:20;;;;;;;1.03;0.53;;;;;;;6.57;100.00;99468.50;5064145;28;20652;-72
2023/12/23 00:39:45;;;;;;;1.27;0.70;;;;;;;6.59;100.00;99470.97;5053796;28;20178;-72
2023/12/23 00:42:10;;;;;;;1.00;0.93;;;;;;;6.55;100.00;99467.72;5058523;28;20285;-72
2023/12/23 00:44:35;;;;;;;4.27;0.90;;;;;;;6.55;100.00;99483.06;5053860;28;20209;-71
2023/12/23 00:47:01;;;;;;;1.37;1.00;;;;;;;6.62;100.00;99488.69;5053405;28;20177;-70
2023/12/23 00:49:26;;;;;;;1.13;0.80;;;;;;;6.68;100.00;99490.13;5053325;28;20192;-71
2023/12/23 00:51:51;;;;;;;0.97;0.80;;;;;;;6.67;100.00;99491.84;5057311;28;20231;-70
2023/12/23 00:54:17;;;;;;;3.23;0.70;;;;;;;6.77;100.00;99497.34;5063486;28;20189;-71
2023/12/23 00:56:42;;;;;;;0.77;0.77;;;;;;;6.71;100.00;99484.88;5072018;28;20613;-71
2023/12/23 00:59:07;;;;;;;2.10;0.80;;;;;;;6.70;100.00;99495.97;5073055;28;20196;-71
2023/12/23 01:01:33;;;;;;;1.90;0.80;;;;;;;6.62;100.00;99493.81;5073369;28;20257;-71
2023/12/23 01:03:58;;;;;;;2.50;0.83;;;;;;;6.68;100.00;99492.69;5076411;28;20662;-71
2023/12/23 01:06:23;;;;;;;2.13;1.10;;;;;;;6.72;100.00;99495.03;5053127;28;20193;-72
2023/12/23 01:08:49;;;;;;;2.90;1.23;;;;;;;6.74;100.00;99493.22;5051476;28;20185;-70
2023/12/23 01:11:14;;;;;;;4.93;1.17;;;;;;;6.77;100.00;99495.63;5044100;28;20224;-71
2023/12/23 01:13:39;;;;;;;0.90;0.80;;;;;;;6.74;100.00;99502.63;5051716;28;20178;-70
2023/12/23 01:16:05;;;;;;;2.70;1.30;;;;;;;6.74;100.00;99492.41;5053472;28;20292;-71
2023/12/23 01:18:30;;;;;;;1.00;0.90;;;;;;;6.79;100.00;99504.03;5051371;28;20644;-71
2023/12/23 01:20:55;;;;;;;1.37;0.80;;;;;;;6.83;100.00;99496.25;5049331;28;20326;-71
2023/12/23 01:23:20;;;;;;;3.17;1.13;;;;;;;6.86;100.00;99511.41;5061584;28;20185;-71
2023/12/23 01:25:46;;;;;;;1.60;0.90;;;;;;;6.94;100.00;99492.25;5052573;28;20509;-70
2023/12/23 01:28:11;;;;;;;2.93;1.10;;;;;;;7.06;100.00;99506.16;5051110;28;20181;-70
2023/12/23 01:30:36;;;;;;;2.43;1.13;;;;;;;7.11;100.00;99504.19;5044329;28;20212;-71
2023/12/23 01:33:02;;;;;;;2.47;1.00;;;;;;;7.11;100.00;99496.53;5063026;28;20709;-71
2023/12/23 01:35:27;;;;;;;3.03;0.90;;;;;;;7.14;100.00;99489.63;5053107;28;20216;-71
2023/12/23 01:37:53;;;;;;;2.33;0.80;;;;;;;7.15;100.00;99481.84;5052464;28;20201;-71
2023/12/23 01:40:18;;;;;;;2.33;1.07;;;;;;;7.18;100.00;99497.06;5043487;28;20523;-71
2023/12/23 01:42:44;;;;;;;2.77;1.00;;;;;;;7.24;100.00;99495.91;5050670;28;20201;-71
2023/12/23 01:45:10;;;;;;;4.23;1.50;;;;;;;7.33;100.00;99487.78;5050843;28;20189;-74
2023/12/23 01:47:40;;;;;;;3.97;1.33;;;;;;;7.33;100.00;99489.50;5051929;28;20181;-72
2023/12/23 01:50:09;;;;;;;4.00;1.33;;;;;;;7.38;100.00;99483.25;5040764;28;20704;-70
2023/12/23 01:52:36;;;;;;;2.17;1.00;;;;;;;7.36;100.00;99486.78;5050582;28;20268;-70
2023/12/23 01:55:02;;;;;;;4.23;1.67;;;;;;;7.33;100.00;99485.22;5069107;28;20177;-71
2023/12/23 01:57:27;;;;;;;3.33;1.10;;;;;;;7.46;100.00;99500.75;5070864;28;20173;-71
2023/12/23 01:59:52;;;;;;;2.00;1.30;;;;;;;7.51;100.00;99497.97;5070490;28;20211;-71
2023/12/23 02:02:20;;;;;;;6.57;1.30;;;;;;;7.52;100.00;99505.56;5060702;28;20223;-72
2023/12/23 02:04:46;;;;;;;3.40;1.27;;;;;;;7.45;100.00;99513.66;5070117;28;20271;-73
2023/12/23 02:07:11;;;;;;;2.53;1.10;;;;;;;7.43;100.00;99506.88;5069676;28;20272;-71
2023/12/23 02:09:36;;;;;;;4.27;1.93;;;;;;;7.30;100.00;99508.38;5071002;28;20551;-72
2023/12/23 02:12:15;;;;;;;4.73;1.63;;;;;;;7.38;100.00;99519.06;5076604;28;20272;-71
2023/12/23 02:15:03;;;;;;;4.20;1.37;;;;;;;7.23;100.00;99530.91;5070862;28;20192;-72
2023/12/23 02:17:28;;;;;;;6.77;1.50;;;;;;;7.06;100.00;99539.41;5070354;28;20180;-73
2023/12/23 02:19:53;;;;;;;2.60;1.43;;;;;;;6.82;100.00;99551.63;5069778;28;20228;-74
2023/12/23 02:22:19;;;;;;;4.30;1.50;;;;;;;6.64;100.00;99553.34;5060461;28;20298;-74
2023/12/23 02:24:44;;;;;;;1.73;1.10;;;;;;;6.65;100.00;99555.00;5070247;28;20281;-74
2023/12/23 02:27:14;;;;;;;1.70;1.13;;;;;;;6.71;100.00;99562.38;5069133;28;20219;-77
2023/12/23 02:29:41;;;;;;;2.33;1.10;;;;;;;6.59;100.00;99558.66;5070730;28;20200;-74
2023/12/23 02:32:08;;;;;;;5.50;1.27;;;;;;;6.48;100.00;99563.44;5076520;28;20558;-74
2023/12/23 02:34:34;;;;;;;2.73;1.00;;;;;;;6.41;100.00;99572.28;5069573;28;20177;-74
2023/12/23 02:36:59;;;;;;;3.50;1.07;;;;;;;6.54;100.00;99557.25;5069446;28;20208;-73
2023/12/23 02:39:24;;;;;;;4.20;1.23;;;;;;;6.41;100.00;99567.19;5070443;28;20550;-74
2023/12/23 02:41:49;;;;;;;2.00;0.97;;;;;;;6.50;100.00;99548.88;5062443;28;20239;-74
2023/12/23 02:44:15;;;;;;;1.30;0.93;;;;;;;6.44;100.00;99550.00;5042234;28;20200;-74
2023/12/23 02:46:40;;;;;;;1.13;0.80;;;;;;;6.46;100.00;99553.31;5070345;28;20188;-73
2023/12/23 02:49:05;;;;;;;2.30;0.80;;;;;;;6.56;100.00;99540.09;5071091;28;20183;-74
2023/12/23 02:51:30;;;;;;;1.93;1.33;;;;;;;6.58;100.00;99534.00;5062389;28;20603;-74
2023/12/23 02:53:56;;;;;;;1.10;1.00;;;;;;;6.61;100.00;99527.94;5074711;28;20180;-72
2023/12/23 02:56:21;;;;;;;2.67;1.40;;;;;;;6.49;100.00;99531.06;5053843;28;20671;-77
2023/12/23 02:58:46;;;;;;;6.70;1.40;;;;;;;6.63;100.00;99532.06;5050091;28;20189;-72
2023/12/23 03:01:11;;;;;;;3.50;1.40;;;;;;;6.61;100.00;99525.38;5049475;28;20250;-74
2023/12/23 03:03:37;;;;;;;3.50;1.10;;;;;;;6.51;100.00;99529.25;5049858;28;20644;-73
2023/12/23 03:06:02;;;;;;;2.67;1.10;;;;;;;6.65;100.00;99533.72;5052101;28;20193;-73
2023/12/23 03:08:28;;;;;;;2.23;1.20;;;;;;;6.71;100.00;99533.44;5069190;28;20179;-73
2023/12/23 03:10:53;;;;;;;1.10;1.00;;;;;;;6.70;100.00;99527.50;5052392;28;20233;-73
2023/12/23 03:13:18;;;;;;;1.60;1.10;;;;;;;6.66;100.00;99520.91;5059733;28;20173;-73
2023/12/23 03:15:43;;;;;;;2.73;1.30;;;;;;;6.52;100.00;99511.28;5049333;28;20204;-73
2023/12/23 03:18:09;;;;;;;3.33;1.40;;;;;;;6.57;100.00;99516.19;5050646;28;20236;-73
2023/12/23 03:20:34;;;;;;;3.50;1.50;;;;;;;6.70;100.00;99507.06;5044636;28;20267;-72
2023/12/23 03:22:59;;;;;;;3.83;1.40;;;;;;;6.70;100.00;99499.38;5069583;28;20179;-72
2023/12/23 03:25:24;;;;;;;5.10;1.80;;;;;;;6.72;100.00;99487.38;5068547;28;20180;-72
2023/12/23 03:27:50;;;;;;;5.47;2.13;;;;;;;6.72;100.00;99486.53;5070150;28;20252;-73
2023/12/23 03:30:15;;;;;;;2.60;1.90;;;;;;;6.79;100.00;99480.22;5061132;28;20235;-73
2023/12/23 03:32:41;;;;;;;5.90;1.73;;;;;;;6.80;100.00;99466.53;5078675;28;20182;-72
2023/12/23 03:35:07;;;;;;;6.23;2.17;;;;;;;6.77;100.00;99475.19;5053622;28;20593;-73
2023/12/23 03:37:32;;;;;;;6.00;2.60;;;;;;;6.79;100.00;99468.25;5053148;28;20197;-74
2023/12/23 03:39:57;;;;;;;6.77;2.10;;;;;;;6.86;100.00;99450.91;5053714;28;20231;-75
2023/12/23 03:42:22;;;;;;;7.63;1.93;;;;;;;6.83;100.00;99461.25;5043443;28;20229;-75
2023/12/23 03:44:48;;;;;;;6.13;1.77;;;;;;;6.82;100.00;99449.38;5053269;28;20177;-76
2023/12/23 03:47:13;;;;;;;7.27;1.50;;;;;;;6.84;100.00;99446.78;5054160;28;20189;-75
2023/12/23 03:49:39;;;;;;;6.97;2.47;;;;;;;6.90;100.00;99436.25;5055347;28;20185;-75
2023/12/23 03:52:05;;;;;;;4.10;1.63;;;;;;;6.93;100.00;99439.47;5046508;28;20259;-76
2023/12/23 03:54:30;;;;;;;4.83;2.10;;;;;;;6.97;100.00;99439.31;5067364;28;20188;-79
2023/12/23 03:56:56;;;;;;;3.97;1.57;;;;;;;7.02;100.00;99439.88;5053566;28;20271;-77
2023/12/23 03:59:21;;;;;;;2.47;1.40;;;;;;;7.04;100.00;99436.34;5065460;28;20705;-78
2023/12/23 04:01:46;;;;;;;6.10;1.80;;;;;;;7.09;100.00;99429.28;5058388;28;20244;-77
2023/12/23 04:04:11;;;;;;;3.07;1.40;;;;;;;7.11;100.00;99430.03;5069397;28;20215;-75
2023/12/23 04:06:37;;;;;;;5.17;1.70;;;;;;;7.23;100.00;99440.53;5072412;28;20616;-75
2023/12/23 04:09:03;;;;;;;6.17;1.80;;;;;;;7.28;100.00;99436.00;5071968;28;20176;-74
2023/12/23 04:11:28;;;;;;;5.17;1.77;;;;;;;7.37;100.00;99432.16;5058561;28;20235;-74
2023/12/23 04:13:54;;;;;;;3.27;1.53;;;;;;;7.38;100.00;99426.13;5070904;28;20189;-73
2023/12/23 04:16:19;;;;;;;6.53;1.57;;;;;;;7.46;100.00;99420.63;5072603;28;20191;-74
2023/12/23 04:18:44;;;;;;;4.80;1.60;;;;;;;7.46;100.00;99421.44;5071777;28;20569;-73
2023/12/23 04:21:10;;;;;;;6.73;1.43;;;;;;;7.46;100.00;99421.44;5064367;28;20228;-73
2023/12/23 04:23:36;;;;;;;4.13;1.80;;;;;;;7.49;100.00;99425.56;5072092;28;20241;-73
2023/12/23 04:26:02;;;;;;;3.77;1.80;;;;;;;7.53;100.00;99409.13;5072771;28;20616;-74
2023/12/23 04:28:27;;;;;;;3.80;1.33;;;;;;;7.58;100.00;99405.44;5047277;28;20182;-73
2023/12/23 04:30:54;;;;;;;5.17;1.73;;;;;;;7.63;100.00;99409.47;5036840;28;20266;-73
2023/12/23 04:33:21;;;;;;;2.53;1.53;;;;;;;7.66;100.00;99411.88;5061477;28;20272;-73
2023/12/23 04:35:46;;;;;;;3.60;1.50;;;;;;;7.64;100.00;99399.19;5071653;28;20200;-72
2023/12/23 04:38:13;;;;;;;3.37;1.17;;;;;;;7.69;100.00;99404.03;5071617;28;20552;-72
2023/12/23 04:40:38;;;;;;;2.50;1.60;;;;;;;7.68;100.00;99395.53;5062482;28;20223;-71
2023/12/23 04:43:04;;;;;;;3.90;1.53;;;;;;;7.71;100.00;99395.34;5060463;28;20209;-71
2023/12/23 04:45:30;;;;;;;3.50;1.50;;;;;;;7.69;100.00;99404.88;5071284;28;20176;-72
2023/12/23 04:47:55;;;;;;;1.90;1.20;;;;;;;7.75;100.00;99406.25;5069723;28;20199;-71
2023/12/23 04:50:20;;;;;;;3.63;1.20;;;;;;;7.69;100.00;99398.91;5063332;28;20180;-72
2023/12/23 04:52:46;;;;;;;2.63;1.57;;;;;;;7.74;100.00;99413.13;5084824;28;20576;-72
2023/12/23 04:55:11;;;;;;;4.43;1.43;;;;;;;7.73;100.00;99410.66;5071644;28;20193;-71
2023/12/23 04:57:37;;;;;;;2.67;1.17;;;;;;;7.71;100.00;99392.78;5071938;28;20184;-72
2023/12/23 05:00:05;;;;;;;2.37;1.30;;;;;;;7.71;100.00;99389.41;5069860;28;20500;-72
2023/12/23 05:02:31;;;;;;;4.87;1.33;;;;;;;7.74;100.00;99402.06;5070840;28;20205;-71
2023/12/23 05:04:57;;;;;;;3.73;1.30;;;;;;;7.72;100.00;99389.31;5071587;28;20169;-71
2023/12/23 05:07:23;;;;;;;2.87;1.20;;;;;;;7.71;100.00;99397.91;5071751;28;20325;-74
2023/12/23 05:09:48;;;;;;;2.03;1.20;;;;;;;7.74;100.00;99399.50;5071785;28;20577;-71
2023/12/23 05:12:13;;;;;;;1.77;1.27;;;;;;;7.82;100.00;99397.34;5077607;28;20235;-71
2023/12/23 05:14:39;;;;;;;4.13;1.30;;;;;;;7.82;100.00;99397.34;5071383;28;20204;-71
2023/12/23 05:17:04;;;;;;;2.17;1.37;;;;;;;7.84;100.00;99385.28;5070383;28;20376;-71
2023/12/23 05:19:29;;;;;;;5.33;1.37;;;;;;;7.79;100.00;99396.69;5071585;28;20225;-71
2023/12/23 05:21:55;;;;;;;2.83;1.27;;;;;;;7.87;100.00;99389.41;5063320;28;20247;-72
2023/12/23 05:24:20;;;;;;;4.50;1.77;;;;;;;7.86;100.00;99380.91;5072186;28;20220;-73
2023/12/23 05:26:45;;;;;;;2.03;0.97;;;;;;;7.88;100.00;99385.94;5070038;28;20184;-73
2023/12/23 05:29:10;;;;;;;4.70;1.40;;;;;;;7.97;100.00;99376.94;5069150;28;20580;-71
2023/12/23 05:31:36;;;;;;;4.13;1.37;;;;;;;8.00;100.00;99379.31;5061204;28;20277;-71
2023/12/23 05:34:01;;;;;;;2.50;1.13;;;;;;;7.96;100.00;99381.22;5068505;28;20189;-72
2023/12/23 05:36:26;;;;;;;1.83;1.10;;;;;;;7.98;100.00;99381.97;5070258;28;20702;-73
2023/12/23 05:38:51;;;;;;;3.57;1.20;;;;;;;8.06;100.00;99376.41;5070200;28;20177;-72
2023/12/23 05:41:17;;;;;;;2.37;1.27;;;;;;;8.00;100.00;99375.03;5050678;28;20275;-72
2023/12/23 05:43:42;;;;;;;2.37;1.13;;;;;;;7.91;100.00;99372.97;5066588;28;20196;-73
2023/12/23 05:46:07;;;;;;;2.73;1.20;;;;;;;7.84;100.00;99374.19;5071421;28;20177;-72
2023/12/23 05:48:33;;;;;;;0.83;0.73;;;;;;;7.79;100.00;99369.34;5069830;28;20251;-72
2023/12/23 05:50:58;;;;;;;1.37;0.80;;;;;;;7.83;100.00;99370.00;5068015;28;20310;-72
2023/12/23 05:53:23;;;;;;;1.47;0.80;;;;;;;7.81;100.00;99375.19;5078088;28;20218;-73
2023/12/23 05:55:48;;;;;;;2.37;0.70;;;;;;;7.80;100.00;99365.03;5060159;28;20204;-72
2023/12/23 05:58:14;;;;;;;1.77;0.93;;;;;;;7.86;100.00;99382.63;5050283;28;20185;-72
2023/12/23 06:00:39;;;;;;;1.07;0.70;;;;;;;7.97;100.00;99361.56;5044009;28;20220;-73
2023/12/23 06:03:04;;;;;;;3.53;1.27;;;;;;;7.98;100.00;99365.78;5050898;28;20536;-73
2023/12/23 06:05:30;;;;;;;1.43;0.90;;;;;;;8.08;100.00;99364.34;5052490;28;20193;-73
2023/12/23 06:07:55;;;;;;;1.50;0.93;;;;;;;8.05;100.00;99367.06;5052788;28;20208;-74
2023/12/23 06:10:21;;;;;;;2.27;1.37;;;;;;;8.14;100.00;99368.31;5043416;28;20208;-73
2023/12/23 06:12:46;;;;;;;3.13;1.33;;;;;;;8.23;100.00;99365.22;5065326;28;20534;-72
2023/12/23 06:15:11;;;;;;;2.30;1.10;;;;;;;8.30;100.00;99363.97;5052062;28;20173;-73
2023/12/23 06:17:37;;;;;;;1.43;0.80;;;;;;;8.36;100.00;99361.06;5051371;28;20177;-74
2023/12/23 06:20:04;;;;;;;3.30;1.27;;;;;;;8.35;100.00;99353.47;5049269;28;20298;-72
2023/12/23 06:22:29;;;;;;;2.13;1.20;;;;;;;8.44;100.00;99354.66;5049468;28;20204;-72
2023/12/23 06:24:54;;;;;;;1.20;0.80;;;;;;;8.39;100.00;99327.53;5050767;28;20185;-73
2023/12/23 06:27:20;;;;;;;2.50;1.07;;;;;;;8.40;100.00;99344.59;5052429;28;20203;-73
2023/12/23 06:29:45;;;;;;;4.33;2.07;;;;;;;8.37;100.00;99339.66;5052101;28;20193;-74
2023/12/23 06:32:10;;;;;;;4.97;1.40;;;;;;;8.44;100.00;99332.41;5055362;28;20728;-77
2023/12/23 06:34:35;;;;;;;4.30;1.43;;;;;;;8.39;100.00;99324.16;5051078;28;20187;-75
2023/12/23 06:37:01;;;;;;;3.37;1.20;;;;;;;8.37;100.00;99328.56;5051549;28;20205;-76
2023/12/23 06:39:26;;;;;;;4.80;1.10;;;;;;;8.38;100.00;99320.78;5050655;28;20486;-78
2023/12/23 06:41:51;;;;;;;1.83;1.10;;;;;;;8.37;100.00;99316.59;5067521;28;20254;-77
2023/12/23 06:44:16;;;;;;;2.30;1.10;;;;;;;8.31;100.00;99316.94;5061667;28;20196;-76
2023/12/23 06:46:42;;;;;;;3.37;1.27;;;;;;;8.26;100.00;99330.91;5061546;28;20241;-74
2023/12/23 06:49:07;;;;;;;2.17;0.87;;;;;;;8.26;100.00;99321.50;5064389;28;20188;-76
2023/12/23 06:51:32;;;;;;;2.67;0.87;;;;;;;8.24;100.00;99321.56;5052095;28;20234;-67
2023/12/23 06:53:57;;;;;;;2.50;0.90;;;;;;;8.21;100.00;99334.56;5069921;28;20177;-70
2023/12/23 06:56:23;;;;;;;2.30;1.43;;;;;;;8.18;100.00;99329.59;5053113;28;20223;-72
2023/12/23 06:58:48;;;;;;;1.90;1.00;;;;;;;8.19;100.00;99330.44;5051227;28;20182;-70
2023/12/23 07:01:14;;;;;;;4.00;1.30;;;;;;;8.22;100.00;99338.78;5042077;28;20600;-69
2023/12/23 07:03:41;;;;;;;1.47;1.10;;;;;;;8.18;100.00;99334.72;5049691;28;20181;-70
2023/12/23 07:06:06;;;;;;;2.50;0.83;;;;;;;8.19;100.00;99343.25;5064481;28;20176;-72
2023/12/23 07:08:33;;;;;;;5.83;1.20;;;;;;;8.21;100.00;99343.97;5074443;28;20245;-73
2023/12/23 07:10:59;;;;;;;4.53;1.23;;;;;;;8.20;100.00;99344.91;5065904;28;20250;-69
2023/12/23 07:13:24;;;;;;;4.03;1.23;;;;;;;8.14;100.00;99358.88;5082390;28;20173;-70
2023/12/23 07:15:49;;;;;;;2.77;1.30;;;;;;;8.11;100.00;99351.34;5074477;28;20624;-69
2023/12/23 07:18:15;;;;;;;2.00;0.87;;;;;;;8.12;100.00;99360.69;5073735;28;20188;-71
2023/12/23 07:20:42;;;;;;;2.60;1.17;;;;;;;8.05;100.00;99349.13;5064773;28;20262;-70
2023/12/23 07:23:07;;;;;;;3.77;1.10;;;;;;;7.99;100.00;99362.28;5084305;28;20599;-71
2023/12/23 07:25:32;;;;;;;3.33;1.20;;;;;;;7.94;100.00;99360.00;5073052;28;20242;-71
2023/12/23 07:27:58;;;;;;;1.90;1.00;;;;;;;7.79;100.00;99373.63;5072209;28;20263;-74
2023/12/23 07:30:23;;;;;;;2.87;1.10;;;;;;;7.86;100.00;99359.59;5065888;28;20334;-69
2023/12/23 07:32:48;;;;;;;5.23;1.20;;;;;;;7.79;100.00;99363.38;5072914;28;20177;-69
2023/12/23 07:35:14;;;;;;;5.40;1.30;;;;;;;7.80;100.00;99372.72;5073322;28;20503;-71
2023/12/23 07:37:39;;;;;;;4.17;1.10;;;;;;;7.81;100.00;99366.72;5066114;28;20185;-69
2023/12/23 07:40:06;;;;;;;3.30;1.03;;;;;;;7.78;100.00;99354.91;5043062;28;20653;-72
2023/12/23 07:42:32;;;;;;;3.17;1.67;;;;;;;7.74;100.00;99361.09;5068234;28;20587;-76
2023/12/23 07:44:57;;;;;;;4.70;1.20;;;;;;;7.91;100.00;99362.72;5063110;28;20252;-62
2023/12/23 07:47:22;;;;;;;4.47;1.20;;;;;;;7.90;100.00;99354.22;5072223;28;20176;-73
2023/12/23 07:49:47;;;;;;;1.47;0.87;;;;;;;7.89;100.00;99355.13;5065640;28;20235;-73
2023/12/23 07:52:13;;;;;;;4.00;1.97;;;;;;;7.84;100.00;99363.97;5075267;28;20219;-73
2023/12/23 07:54:38;;;;;;;2.33;0.80;;;;;;;7.83;100.00;99357.22;5067951;28;20331;-74
2023/12/23 07:57:04;;;;;;;3.53;1.60;;;;;;;7.79;100.00;99366.78;5050452;28;20193;-74
2023/12/23 07:59:29;;;;;;;1.53;1.13;;;;;;;7.78;100.00;99354.06;5052594;28;20189;-74
2023/12/23 08:01:54;;;;;;;2.20;1.20;;;;;;;7.77;100.00;99358.38;5056884;28;20216;-73
2023/12/23 08:04:20;;;;;;;2.00;0.93;;;;;;;7.80;100.00;99377.84;5065183;28;20214;-73
2023/12/23 08:06:45;;;;;;;5.33;1.10;;;;;;;7.84;100.00;99376.75;5071687;28;20827;-73
2023/12/23 08:09:10;;;;;;;1.27;1.00;;;;;;;7.83;100.00;99373.38;5069936;28;20181;-77
2023/12/23 08:11:35;;;;;;;2.40;0.93;;;;;;;7.83;100.00;99375.94;5045138;28;20246;-74
2023/12/23 08:14:02;;;;;;;4.17;1.40;;;;;;;7.90;100.00;99361.91;5052690;28;20189;-74
2023/12/23 08:16:28;;;;;;;1.90;1.20;;;;;;;7.91;100.00;99360.16;5052342;28;20561;-74
2023/12/23 08:18:53;;;;;;;4.60;1.57;;;;;;;7.98;100.00;99366.59;5051402;28;20216;-74
2023/12/23 08:21:18;;;;;;;1.70;1.10;;;;;;;7.95;100.00;99355.69;5044701;28;20282;-73
2023/12/23 08:23:43;;;;;;;4.83;1.27;;;;;;;8.07;100.00;99372.94;5052362;28;20307;-73
2023/12/23 08:26:09;;;;;;;3.47;0.70;;;;;;;8.07;100.00;99358.41;5071895;28;20509;-73
2023/12/23 08:28:34;;;;;;;1.60;0.83;;;;;;;8.04;100.00;99365.44;5070853;28;20202;-74
2023/12/23 08:31:02;;;;;;;2.00;0.97;;;;;;;8.03;100.00;99359.47;5049727;27;20234;-75
2023/12/23 08:33:27;;;;;;;0.87;0.70;;;;;;;8.07;100.00;99373.78;5080232;28;20256;-73
2023/12/23 08:35:53;;;;;;;3.97;0.87;;;;;;;8.08;100.00;99375.41;5071688;28;20275;-73
2023/12/23 08:38:18;;;;;;;6.33;1.20;;;;;;;8.13;100.00;99367.47;5071918;28;20267;-74
2023/12/23 08:40:43;;;;;;;3.87;0.83;;;;;;;8.07;100.00;99362.69;5063838;28;20227;-74
2023/12/23 08:43:09;;;;;;;2.60;0.77;;;;;;;8.13;100.00;99371.78;5072477;28;20241;-78
2023/12/23 08:45:35;;;;;;;5.60;1.17;;;;;;;8.17;100.00;99378.38;5058493;28;20172;-75
2023/12/23 08:48:00;;;;;;;1.70;0.90;;;;;;;8.27;100.00;99378.69;5071560;28;20181;-74
2023/12/23 08:50:26;;;;;;;2.03;0.70;;;;;;;8.18;100.00;99375.72;5063788;28;20747;-74
2023/12/23 08:52:51;;;;;;;2.17;0.90;;;;;;;8.24;100.00;99375.38;5084866;28;20234;-74
2023/12/23 08:55:16;;;;;;;2.07;0.83;;;;;;;8.20;100.00;99373.91;5070915;28;20173;-74
2023/12/23 08:57:41;;;;;;;1.43;0.80;;;;;;;8.22;100.00;99371.25;5070835;28;20188;-74
2023/12/23 09:00:07;;;;;;;1.17;0.77;;;;;;;8.29;100.00;99382.00;5063330;28;20173;-75
2023/12/23 09:02:34;;;;;;;1.63;0.90;;;;;;;8.28;100.00;99377.78;5071111;28;20246;-74
2023/12/23 09:04:59;;;;;;;2.87;0.90;;;;;;;8.24;100.00;99384.81;5073000;28;20212;-74
2023/12/23 09:07:24;;;;;;;1.13;0.63;;;;;;;8.21;100.00;99379.84;5058401;28;20213;-74
2023/12/23 09:09:50;;;;;;;1.40;0.80;;;;;;;8.24;100.00;99379.69;5070961;28;20211;-75
2023/12/23 09:12:15;;;;;;;1.17;0.73;;;;;;;8.17;100.00;99378.38;5077149;28;20258;-75
2023/12/23 09:14:40;;;;;;;2.73;0.80;;;;;;;8.24;100.00;99364.31;5070630;28;20203;-75
2023/12/23 09:17:06;;;;;;;1.50;0.80;;;;;;;8.27;100.00;99376.94;5071592;28;20693;-78
2023/12/23 09:19:32;;;;;;;0.80;0.70;;;;;;;8.32;100.00;99367.28;5067281;28;20275;-72
2023/12/23 09:21:57;;;;;;;1.63;0.60;;;;;;;8.28;100.00;99378.59;5064720;28;20558;-73
2023/12/23 09:24:22;;;;;;;2.83;0.93;;;;;;;8.28;100.00;99383.72;5054166;28;20689;-70
2023/12/23 09:26:47;;;;;;;0.57;0.57;;;;;;;8.29;100.00;99380.25;5059393;28;20187;-70
2023/12/23 09:29:13;;;;;;;0.97;0.50;;;;;;;8.32;100.00;99382.66;5067405;28;20181;-70
2023/12/23 09:31:38;;;;;;;0.50;0.50;;;;;;;8.31;100.00;99395.53;5043471;28;20247;-70
2023/12/23 09:34:03;;;;;;;1.57;0.90;;;;;;;8.34;100.00;99393.63;5058737;28;20231;-70
2023/12/23 09:36:29;;;;;;;1.20;0.90;;;;;;;8.33;100.00;99394.53;5057410;28;20240;-71
2023/12/23 09:38:54;;;;;;;1.20;0.80;;;;;;;8.40;100.00;99398.41;5053326;28;20264;-70
2023/12/23 09:41:20;;;;;;;0.53;0.53;;;;;;;8.35;100.00;99397.84;5051887;28;20244;-68
2023/12/23 09:43:45;;;;;;;0.53;0.53;;;;;;;8.44;100.00;99385.44;5067547;28;20254;-69
2023/12/23 09:46:14;;;;;;;0.73;0.47;;;;;;;8.42;100.00;99400.06;5066332;28;20176;-69
2023/12/23 09:48:40;;;;;;;1.00;0.63;;;;;;;8.49;100.00;99407.34;5064907;28;20540;-69
2023/12/23 09:51:05;;;;;;;1.40;0.80;;;;;;;8.55;100.00;99390.78;5065362;28;20220;-68
2023/12/23 09:53:36;;;;;;;0.50;0.47;;;;;;;8.60;100.00;99399.03;5075483;28;20188;-69
2023/12/23 09:56:01;;;;;;;0.77;0.60;;;;;;;8.64;100.00;99394.56;5052734;28;20204;-70
2023/12/23 09:58:27;;;;;;;0.70;0.60;;;;;;;8.79;100.00;99391.09;5062699;28;20184;-68
2023/12/23 10:00:52;;;;;;;0.63;0.60;;;;;;;8.87;100.00;99396.59;5062727;28;20212;-69
2023/12/23 10:03:21;;;;;;;0.97;0.80;;;;;;;8.91;100.00;99399.00;5071954;28;20702;-69
2023/12/23 10:05:47;;;;;;;0.57;0.57;;;;;;;8.94;100.00;99414.19;5070019;28;20169;-69
2023/12/23 10:08:13;;;;;;;0.60;0.60;;;;;;;8.89;100.00;99417.03;5069220;28;20595;-69
2023/12/23 10:10:38;;;;;;;0.50;0.50;;;;;;;8.92;100.00;99423.72;5062578;28;20224;-68
2023/12/23 10:13:04;;;;;;;0.90;0.50;;;;;;;8.96;100.00;99420.06;5070024;28;20272;-73
2023/12/23 10:15:29;;;;;;;1.00;0.60;;;;;;;8.88;100.00;99420.50;5069336;28;20196;-73
2023/12/23 10:17:55;;;;;;;0.40;0.40;;;;;;;9.07;100.00;99416.84;5067319;28;20177;-71
2023/12/23 10:20:20;;;;;;;0.40;0.40;;;;;;;9.09;100.00;99407.34;5054408;28;20233;-70
2023/12/23 10:22:47;;;;;;;1.73;0.90;;;;;;;9.17;100.00;99410.28;5049421;28;20641;-75
2023/12/23 10:25:13;;;;;;;0.60;0.60;;;;;;;9.16;100.00;99408.63;5055153;28;20178;-72
2023/12/23 10:27:43;;;;;;;0.50;0.50;;;;;;;9.19;100.00;99396.44;5054899;28;20296;-72
2023/12/23 10:30:10;;;;;;;2.83;2.57;;;;;;;9.30;100.00;99418.91;5042381;28;20182;-74
2023/12/23 10:32:37;;;;;;;1.50;0.60;;;;;;;9.33;100.00;99400.72;5049476;28;20219;-71
2023/12/23 10:35:05;;;;;;;0.70;0.40;;;;;;;9.39;100.00;99409.81;5062761;28;20181;-72
2023/12/23 10:37:32;;;;;;;0.53;0.53;;;;;;;9.36;100.00;99412.56;5060851;28;20188;-72
2023/12/23 10:40:09;;;;;;;0.60;0.60;;;;;;;9.62;100.00;99405.81;5066735;28;20600;-72
2023/12/23 10:42:35;;;;;;;2.87;0.57;;;;;;;9.33;100.00;99412.75;5033463;28;20580;-72
2023/12/23 10:45:01;;;;;;;0.93;0.83;;;;;;;9.27;100.00;99415.69;5062470;28;20176;-70
2023/12/23 10:47:28;;;;;;;2.13;0.80;;;;;;;9.21;100.00;99409.16;5060082;28;20244;-72
2023/12/23 10:49:56;;;;;;;1.77;1.00;;;;;;;9.15;100.00;99397.56;5064617;28;20184;-73
2023/12/23 10:52:23;;;;;;;12.53;4.70;;;;;;;8.99;100.00;99418.16;5063015;28;20220;-74
2023/12/23 10:54:48;;;;;;;3.97;2.43;;;;;;;8.77;100.00;99431.41;5075087;28;20211;-73
2023/12/23 10:57:15;;;;;;;2.70;1.90;;;;;;;8.65;100.00;99435.47;5076488;28;20631;-72
2023/12/23 10:59:40;;;;;;;3.57;2.23;;;;;;;8.58;100.00;99434.19;5075108;28;20192;-72
2023/12/23 11:02:16;;;;;;;3.73;1.73;;;;;;;8.55;100.00;99429.25;5063378;28;20216;-72
2023/12/23 11:04:44;;;;;;;1.70;1.60;;;;;;;8.70;100.00;99428.34;5048435;28;20222;-73
2023/12/23 11:07:13;;;;;;;1.13;0.70;;;;;;;8.87;100.00;99441.97;5071113;28;20203;-73
2023/12/23 11:09:42;;;;;;;2.80;1.27;;;;;;;8.93;100.00;99430.50;5056795;28;20181;-73
2023/12/23 11:12:10;;;;;;;1.47;0.80;;;;;;;8.94;100.00;99443.22;5063117;28;20267;-73
2023/12/23 11:14:36;;;;;;;0.60;0.60;;;;;;;9.00;100.00;99437.75;5057797;28;20223;-73
2023/12/23 11:17:02;;;;;;;0.87;0.60;;;;;;;9.07;100.00;99435.66;5069072;28;20721;-76
2023/12/23 11:19:27;;;;;;;0.90;0.90;;;;;;;9.10;100.00;99435.47;5065291;28;20267;-75
2023/12/23 11:22:23;;;;;;;0.50;0.50;;;;;;;9.18;100.00;99433.28;5068282;28;20216;-73
2023/12/23 11:24:49;;;;;;;0.60;0.60;;;;;;;9.20;100.00;99443.44;5064419;28;20228;-72
2023/12/23 11:27:36;;;;;;;1.07;0.57;;;;;;;9.26;100.00;99435.38;5057424;28;20204;-72